Weather at Joliette Airport

Public forecast

Using degrees Celsius for public forecast. Weather courtesy of forecast.io.

Closest aviation weather report (METAR) to Joliette Airport

Closest report is Montreal International (Mirabel) Airport, 31.4 nm (58.1 km) SW. Retrieved 2021/01/18 05:00 UTC (48 minutes ago):

CYMX 180500Z 25008KT 25SM OVC055 M06/M07 A2952 RMK SC8 SLP001

Closest aviation forecast (TAF) to Joliette Airport

Closest forecast is Montreal International (Mirabel) Airport, 31.4 nm (58.1 km) SW. Retrieved 2021-01-18 00:45 UTC (5 hours ago):

TAF TAF CYMX 172341Z 1800/1824 24007KT P6SM OVC020 TEMPO 1800/1814 BKN025 FM181400 27008KT P6SM BKN040 BECMG 1820/1822 FEW040 RMK NXT FCST BY 180600Z